sensor_id;sensor_type;location;lat;lon;timestamp;temperature;humidity
7494;DHT22;3788;49.902;8.590;2022-10-10T00:02:06;10.40;94.10
7494;DHT22;3788;49.902;8.590;2022-10-10T00:04:34;10.40;94.10
7494;DHT22;3788;49.902;8.590;2022-10-10T00:07:00;10.40;94.20
7494;DHT22;3788;49.902;8.590;2022-10-10T00:09:27;10.40;94.20
7494;DHT22;3788;49.902;8.590;2022-10-10T00:11:54;10.40;94.30
7494;DHT22;3788;49.902;8.590;2022-10-10T00:14:21;10.40;94.40
7494;DHT22;3788;49.902;8.590;2022-10-10T00:16:49;10.40;94.50
7494;DHT22;3788;49.902;8.590;2022-10-10T00:19:16;10.30;94.50
7494;DHT22;3788;49.902;8.590;2022-10-10T00:21:43;10.30;94.60
7494;DHT22;3788;49.902;8.590;2022-10-10T00:24:10;10.30;94.70
7494;DHT22;3788;49.902;8.590;2022-10-10T00:26:36;10.30;94.80
7494;DHT22;3788;49.902;8.590;2022-10-10T00:29:03;10.20;94.80
7494;DHT22;3788;49.902;8.590;2022-10-10T00:31:30;10.20;94.80
7494;DHT22;3788;49.902;8.590;2022-10-10T00:34:01;10.20;94.90
7494;DHT22;3788;49.902;8.590;2022-10-10T00:36:28;10.20;94.90
7494;DHT22;3788;49.902;8.590;2022-10-10T00:38:55;10.20;94.90
7494;DHT22;3788;49.902;8.590;2022-10-10T00:41:22;10.20;95.00
7494;DHT22;3788;49.902;8.590;2022-10-10T00:44:06;10.10;95.00
7494;DHT22;3788;49.902;8.590;2022-10-10T00:46:34;10.00;95.00
7494;DHT22;3788;49.902;8.590;2022-10-10T00:49:04;10.00;95.10
7494;DHT22;3788;49.902;8.590;2022-10-10T00:51:32;9.90;95.70
7494;DHT22;3788;49.902;8.590;2022-10-10T00:54:02;9.90;95.80
7494;DHT22;3788;49.902;8.590;2022-10-10T00:56:32;9.80;95.90
7494;DHT22;3788;49.902;8.590;2022-10-10T00:59:02;9.80;96.00
7494;DHT22;3788;49.902;8.590;2022-10-10T01:01:30;9.70;96.00
7494;DHT22;3788;49.902;8.590;2022-10-10T01:03:58;9.70;96.10
7494;DHT22;3788;49.902;8.590;2022-10-10T01:06:26;9.70;96.20
7494;DHT22;3788;49.902;8.590;2022-10-10T01:08:55;9.70;96.20
7494;DHT22;3788;49.902;8.590;2022-10-10T01:11:38;9.70;96.30
7494;DHT22;3788;49.902;8.590;2022-10-10T01:14:13;9.70;96.40
7494;DHT22;3788;49.902;8.590;2022-10-10T01:16:47;9.60;96.40
7494;DHT22;3788;49.902;8.590;2022-10-10T01:22:37;9.60;96.50
7494;DHT22;3788;49.902;8.590;2022-10-10T01:25:16;9.60;96.50
7494;DHT22;3788;49.902;8.590;2022-10-10T01:27:52;9.50;96.50
7494;DHT22;3788;49.902;8.590;2022-10-10T01:30:22;9.50;96.60
7494;DHT22;3788;49.902;8.590;2022-10-10T01:32:52;9.40;96.70
7494;DHT22;3788;49.902;8.590;2022-10-10T01:35:37;9.40;97.10
7494;DHT22;3788;49.902;8.590;2022-10-10T01:38:21;9.40;96.90
7494;DHT22;3788;49.902;8.590;2022-10-10T01:40:54;9.40;97.00
7494;DHT22;3788;49.902;8.590;2022-10-10T01:43:25;9.40;97.10
7494;DHT22;3788;49.902;8.590;2022-10-10T01:45:53;9.30;97.10
7494;DHT22;3788;49.902;8.590;2022-10-10T01:48:23;9.30;97.10
7494;DHT22;3788;49.902;8.590;2022-10-10T01:51:13;9.30;97.20
7494;DHT22;3788;49.902;8.590;2022-10-10T01:53:45;9.30;97.30
7494;DHT22;3788;49.902;8.590;2022-10-10T01:56:18;9.30;97.40
7494;DHT22;3788;49.902;8.590;2022-10-10T01:59:07;9.30;97.50
7494;DHT22;3788;49.902;8.590;2022-10-10T02:01:44;9.30;97.50
7494;DHT22;3788;49.902;8.590;2022-10-10T02:04:19;9.20;97.40
7494;DHT22;3788;49.902;8.590;2022-10-10T02:06:51;9.20;97.50
7494;DHT22;3788;49.902;8.590;2022-10-10T02:09:23;9.20;97.50
7494;DHT22;3788;49.902;8.590;2022-10-10T02:11:52;9.20;97.50
7494;DHT22;3788;49.902;8.590;2022-10-10T02:14:22;9.20;97.60
7494;DHT22;3788;49.902;8.590;2022-10-10T02:16:54;9.20;97.60
7494;DHT22;3788;49.902;8.590;2022-10-10T02:19:22;9.20;97.60
7494;DHT22;3788;49.902;8.590;2022-10-10T02:21:51;9.20;97.70
7494;DHT22;3788;49.902;8.590;2022-10-10T02:24:20;9.20;97.70
7494;DHT22;3788;49.902;8.590;2022-10-10T02:26:52;9.20;98.00
7494;DHT22;3788;49.902;8.590;2022-10-10T02:29:23;9.20;97.70
7494;DHT22;3788;49.902;8.590;2022-10-10T02:31:55;9.10;97.60
7494;DHT22;3788;49.902;8.590;2022-10-10T02:34:29;9.10;97.70
7494;DHT22;3788;49.902;8.590;2022-10-10T02:37:00;9.00;97.70
7494;DHT22;3788;49.902;8.590;2022-10-10T02:39:29;9.00;97.80
7494;DHT22;3788;49.902;8.590;2022-10-10T02:41:57;9.00;97.80
7494;DHT22;3788;49.902;8.590;2022-10-10T02:44:24;9.00;97.90
7494;DHT22;3788;49.902;8.590;2022-10-10T02:46:51;9.00;97.90
7494;DHT22;3788;49.902;8.590;2022-10-10T02:49:23;9.00;97.90
7494;DHT22;3788;49.902;8.590;2022-10-10T02:51:51;9.00;97.90
7494;DHT22;3788;49.902;8.590;2022-10-10T02:54:18;9.00;98.30
7494;DHT22;3788;49.902;8.590;2022-10-10T02:56:45;8.90;97.80
7494;DHT22;3788;49.902;8.590;2022-10-10T02:59:11;8.90;97.90
7494;DHT22;3788;49.902;8.590;2022-10-10T03:01:38;8.80;97.90
7494;DHT22;3788;49.902;8.590;2022-10-10T03:04:05;8.80;98.00
7494;DHT22;3788;49.902;8.590;2022-10-10T03:06:33;8.80;98.10
7494;DHT22;3788;49.902;8.590;2022-10-10T03:09:00;8.70;98.10
7494;DHT22;3788;49.902;8.590;2022-10-10T03:11:27;8.70;98.10
7494;DHT22;3788;49.902;8.590;2022-10-10T03:13:54;8.70;98.10
7494;DHT22;3788;49.902;8.590;2022-10-10T03:16:21;8.80;98.10
7494;DHT22;3788;49.902;8.590;2022-10-10T03:18:48;8.70;97.90
7494;DHT22;3788;49.902;8.590;2022-10-10T03:21:15;8.80;97.90
7494;DHT22;3788;49.902;8.590;2022-10-10T03:23:43;8.70;97.90
7494;DHT22;3788;49.902;8.590;2022-10-10T03:26:09;8.70;97.90
7494;DHT22;3788;49.902;8.590;2022-10-10T03:28:36;8.70;97.90
7494;DHT22;3788;49.902;8.590;2022-10-10T03:31:03;8.70;97.90
7494;DHT22;3788;49.902;8.590;2022-10-10T03:33:30;8.70;97.90
7494;DHT22;3788;49.902;8.590;2022-10-10T03:35:57;8.70;97.80
7494;DHT22;3788;49.902;8.590;2022-10-10T03:38:23;8.70;97.80
7494;DHT22;3788;49.902;8.590;2022-10-10T03:40:52;8.70;97.80
7494;DHT22;3788;49.902;8.590;2022-10-10T03:43:18;8.60;97.80
7494;DHT22;3788;49.902;8.590;2022-10-10T03:45:46;8.60;97.80
7494;DHT22;3788;49.902;8.590;2022-10-10T03:48:13;8.60;97.80
7494;DHT22;3788;49.902;8.590;2022-10-10T03:50:40;8.50;97.80
7494;DHT22;3788;49.902;8.590;2022-10-10T03:53:07;8.50;97.90
7494;DHT22;3788;49.902;8.590;2022-10-10T03:55:34;8.50;98.00
7494;DHT22;3788;49.902;8.590;2022-10-10T03:58:02;8.50;98.10
7494;DHT22;3788;49.902;8.590;2022-10-10T04:00:29;8.50;98.20
7494;DHT22;3788;49.902;8.590;2022-10-10T04:02:56;8.50;98.20
7494;DHT22;3788;49.902;8.590;2022-10-10T04:05:23;8.50;98.10
7494;DHT22;3788;49.902;8.590;2022-10-10T04:07:50;8.50;98.20
7494;DHT22;3788;49.902;8.590;2022-10-10T04:10:17;8.50;98.20
7494;DHT22;3788;49.902;8.590;2022-10-10T04:12:44;8.50;98.10
7494;DHT22;3788;49.902;8.590;2022-10-10T04:15:12;8.50;98.00
7494;DHT22;3788;49.902;8.590;2022-10-10T04:17:39;8.40;97.90
7494;DHT22;3788;49.902;8.590;2022-10-10T04:20:06;8.40;97.80
7494;DHT22;3788;49.902;8.590;2022-10-10T04:22:33;8.30;97.70
7494;DHT22;3788;49.902;8.590;2022-10-10T04:25:00;8.30;97.80
7494;DHT22;3788;49.902;8.590;2022-10-10T04:27:27;8.20;97.80
7494;DHT22;3788;49.902;8.590;2022-10-10T04:29:53;8.20;97.80
7494;DHT22;3788;49.902;8.590;2022-10-10T04:32:21;8.20;97.80
7494;DHT22;3788;49.902;8.590;2022-10-10T04:34:48;8.10;97.70
7494;DHT22;3788;49.902;8.590;2022-10-10T04:37:15;8.10;98.10
7494;DHT22;3788;49.902;8.590;2022-10-10T04:39:42;8.00;97.80
7494;DHT22;3788;49.902;8.590;2022-10-10T04:42:09;8.00;97.80
7494;DHT22;3788;49.902;8.590;2022-10-10T04:44:36;7.90;97.80
7494;DHT22;3788;49.902;8.590;2022-10-10T04:47:03;7.90;97.90
7494;DHT22;3788;49.902;8.590;2022-10-10T04:49:31;7.90;97.90
7494;DHT22;3788;49.902;8.590;2022-10-10T04:51:58;7.90;98.00
7494;DHT22;3788;49.902;8.590;2022-10-10T04:54:24;7.90;98.00
7494;DHT22;3788;49.902;8.590;2022-10-10T04:56:51;7.90;98.00
7494;DHT22;3788;49.902;8.590;2022-10-10T04:59:18;7.90;98.00
7494;DHT22;3788;49.902;8.590;2022-10-10T05:01:44;7.90;98.10
7494;DHT22;3788;49.902;8.590;2022-10-10T05:04:11;7.90;98.10
7494;DHT22;3788;49.902;8.590;2022-10-10T05:06:40;7.90;98.10
7494;DHT22;3788;49.902;8.590;2022-10-10T05:09:07;7.90;98.10
7494;DHT22;3788;49.902;8.590;2022-10-10T05:11:33;7.90;98.10
7494;DHT22;3788;49.902;8.590;2022-10-10T05:14:00;7.80;98.10
7494;DHT22;3788;49.902;8.590;2022-10-10T05:16:27;7.80;98.10
7494;DHT22;3788;49.902;8.590;2022-10-10T05:18:54;7.80;98.10
7494;DHT22;3788;49.902;8.590;2022-10-10T05:21:22;7.80;98.20
7494;DHT22;3788;49.902;8.590;2022-10-10T05:23:50;7.80;98.20
7494;DHT22;3788;49.902;8.590;2022-10-10T05:26:17;7.80;98.20
7494;DHT22;3788;49.902;8.590;2022-10-10T05:28:44;7.80;98.20
7494;DHT22;3788;49.902;8.590;2022-10-10T05:31:11;7.80;98.20
7494;DHT22;3788;49.902;8.590;2022-10-10T05:33:38;7.90;98.20
7494;DHT22;3788;49.902;8.590;2022-10-10T05:36:07;7.90;98.20
7494;DHT22;3788;49.902;8.590;2022-10-10T05:38:35;7.90;98.10
7494;DHT22;3788;49.902;8.590;2022-10-10T05:41:04;7.90;98.20
7494;DHT22;3788;49.902;8.590;2022-10-10T05:43:31;7.90;98.10
7494;DHT22;3788;49.902;8.590;2022-10-10T05:45:58;8.00;98.10
7494;DHT22;3788;49.902;8.590;2022-10-10T05:48:25;8.00;98.20
7494;DHT22;3788;49.902;8.590;2022-10-10T05:50:54;8.00;98.30
7494;DHT22;3788;49.902;8.590;2022-10-10T05:53:23;8.00;98.30
7494;DHT22;3788;49.902;8.590;2022-10-10T05:55:50;8.10;98.40
7494;DHT22;3788;49.902;8.590;2022-10-10T05:58:18;8.10;98.40
7494;DHT22;3788;49.902;8.590;2022-10-10T06:00:46;8.10;98.30
7494;DHT22;3788;49.902;8.590;2022-10-10T06:03:19;8.10;98.30
7494;DHT22;3788;49.902;8.590;2022-10-10T06:05:46;8.20;98.30
7494;DHT22;3788;49.902;8.590;2022-10-10T06:08:14;8.20;98.20
7494;DHT22;3788;49.902;8.590;2022-10-10T06:10:42;8.30;98.20
7494;DHT22;3788;49.902;8.590;2022-10-10T06:13:10;8.30;98.10
7494;DHT22;3788;49.902;8.590;2022-10-10T06:15:39;8.30;98.10
7494;DHT22;3788;49.902;8.590;2022-10-10T06:18:06;8.30;98.00
7494;DHT22;3788;49.902;8.590;2022-10-10T06:20:33;8.30;97.90
7494;DHT22;3788;49.902;8.590;2022-10-10T06:23:01;8.30;97.90
7494;DHT22;3788;49.902;8.590;2022-10-10T06:25:27;8.30;98.00
7494;DHT22;3788;49.902;8.590;2022-10-10T06:27:54;8.30;98.00
7494;DHT22;3788;49.902;8.590;2022-10-10T06:30:21;8.30;98.10
7494;DHT22;3788;49.902;8.590;2022-10-10T06:32:49;8.40;98.40
7494;DHT22;3788;49.902;8.590;2022-10-10T06:35:16;8.50;98.80
7494;DHT22;3788;49.902;8.590;2022-10-10T06:37:43;8.80;99.10
7494;DHT22;3788;49.902;8.590;2022-10-10T06:40:10;9.20;99.10
7494;DHT22;3788;49.902;8.590;2022-10-10T06:42:37;9.70;98.80
7494;DHT22;3788;49.902;8.590;2022-10-10T06:45:05;10.20;97.70
7494;DHT22;3788;49.902;8.590;2022-10-10T06:47:33;10.70;97.20
7494;DHT22;3788;49.902;8.590;2022-10-10T06:50:01;11.10;96.60
7494;DHT22;3788;49.902;8.590;2022-10-10T06:52:28;11.60;96.00
7494;DHT22;3788;49.902;8.590;2022-10-10T06:54:54;11.90;95.50
7494;DHT22;3788;49.902;8.590;2022-10-10T06:57:21;12.30;94.90
7494;DHT22;3788;49.902;8.590;2022-10-10T06:59:48;12.40;94.20
7494;DHT22;3788;49.902;8.590;2022-10-10T07:02:15;12.40;93.60
7494;DHT22;3788;49.902;8.590;2022-10-10T07:04:41;12.30;93.40
7494;DHT22;3788;49.902;8.590;2022-10-10T07:07:09;12.30;93.40
7494;DHT22;3788;49.902;8.590;2022-10-10T07:09:36;12.50;93.20
7494;DHT22;3788;49.902;8.590;2022-10-10T07:12:03;12.90;93.10
7494;DHT22;3788;49.902;8.590;2022-10-10T07:14:32;13.30;92.60
7494;DHT22;3788;49.902;8.590;2022-10-10T07:17:02;13.80;92.10
7494;DHT22;3788;49.902;8.590;2022-10-10T07:19:29;14.20;91.40
7494;DHT22;3788;49.902;8.590;2022-10-10T07:21:56;14.60;90.80
7494;DHT22;3788;49.902;8.590;2022-10-10T07:24:24;14.70;90.30
7494;DHT22;3788;49.902;8.590;2022-10-10T07:26:51;14.40;90.20
7494;DHT22;3788;49.902;8.590;2022-10-10T07:29:19;14.00;90.30
7494;DHT22;3788;49.902;8.590;2022-10-10T07:31:46;13.70;90.60
7494;DHT22;3788;49.902;8.590;2022-10-10T07:34:13;13.40;90.90
7494;DHT22;3788;49.902;8.590;2022-10-10T07:36:39;13.00;91.20
7494;DHT22;3788;49.902;8.590;2022-10-10T07:39:06;12.70;91.60
7494;DHT22;3788;49.902;8.590;2022-10-10T07:41:34;12.40;92.00
7494;DHT22;3788;49.902;8.590;2022-10-10T07:44:03;12.20;92.40
7494;DHT22;3788;49.902;8.590;2022-10-10T07:46:30;12.10;92.70
7494;DHT22;3788;49.902;8.590;2022-10-10T07:48:57;12.10;92.90
7494;DHT22;3788;49.902;8.590;2022-10-10T07:51:24;12.30;93.30
7494;DHT22;3788;49.902;8.590;2022-10-10T07:53:51;12.70;93.60
7494;DHT22;3788;49.902;8.590;2022-10-10T07:56:18;13.00;93.00
7494;DHT22;3788;49.902;8.590;2022-10-10T07:58:46;13.50;92.60
7494;DHT22;3788;49.902;8.590;2022-10-10T08:01:13;14.10;92.10
7494;DHT22;3788;49.902;8.590;2022-10-10T08:03:40;14.70;91.40
7494;DHT22;3788;49.902;8.590;2022-10-10T08:06:09;15.10;90.80
7494;DHT22;3788;49.902;8.590;2022-10-10T08:08:37;15.20;90.10
7494;DHT22;3788;49.902;8.590;2022-10-10T08:11:05;15.10;89.80
7494;DHT22;3788;49.902;8.590;2022-10-10T08:13:32;15.00;89.70
7494;DHT22;3788;49.902;8.590;2022-10-10T08:16:01;14.80;89.60
7494;DHT22;3788;49.902;8.590;2022-10-10T08:18:28;14.60;89.80
7494;DHT22;3788;49.902;8.590;2022-10-10T08:20:58;14.40;90.20
7494;DHT22;3788;49.902;8.590;2022-10-10T08:23:25;14.10;90.50
7494;DHT22;3788;49.902;8.590;2022-10-10T08:25:52;14.00;90.80
7494;DHT22;3788;49.902;8.590;2022-10-10T08:28:18;13.80;90.90
7494;DHT22;3788;49.902;8.590;2022-10-10T08:30:45;13.80;91.20
7494;DHT22;3788;49.902;8.590;2022-10-10T08:33:13;13.80;91.30
7494;DHT22;3788;49.902;8.590;2022-10-10T08:35:40;13.80;91.40
7494;DHT22;3788;49.902;8.590;2022-10-10T08:38:07;14.10;91.50
7494;DHT22;3788;49.902;8.590;2022-10-10T08:40:39;14.70;91.30
7494;DHT22;3788;49.902;8.590;2022-10-10T08:43:08;15.30;90.60
7494;DHT22;3788;49.902;8.590;2022-10-10T08:45:38;15.70;89.80
7494;DHT22;3788;49.902;8.590;2022-10-10T08:48:09;15.80;88.60
7494;DHT22;3788;49.902;8.590;2022-10-10T08:50:41;15.80;88.80
7494;DHT22;3788;49.902;8.590;2022-10-10T08:53:13;16.20;89.20
7494;DHT22;3788;49.902;8.590;2022-10-10T08:55:44;16.60;88.80
7494;DHT22;3788;49.902;8.590;2022-10-10T08:58:18;17.00;87.60
7494;DHT22;3788;49.902;8.590;2022-10-10T09:00:50;17.20;86.30
7494;DHT22;3788;49.902;8.590;2022-10-10T09:03:25;17.60;86.40
7494;DHT22;3788;49.902;8.590;2022-10-10T09:06:06;17.90;85.80
7494;DHT22;3788;49.902;8.590;2022-10-10T09:08:46;18.40;84.80
7494;DHT22;3788;49.902;8.590;2022-10-10T09:11:25;18.70;83.80
7494;DHT22;3788;49.902;8.590;2022-10-10T09:14:02;19.00;83.10
7494;DHT22;3788;49.902;8.590;2022-10-10T09:16:39;19.30;82.10
7494;DHT22;3788;49.902;8.590;2022-10-10T09:19:16;19.50;80.80
7494;DHT22;3788;49.902;8.590;2022-10-10T09:21:53;19.60;80.40
7494;DHT22;3788;49.902;8.590;2022-10-10T09:24:25;19.80;80.60
7494;DHT22;3788;49.902;8.590;2022-10-10T09:26:59;19.80;79.90
7494;DHT22;3788;49.902;8.590;2022-10-10T09:29:31;19.90;79.60
7494;DHT22;3788;49.902;8.590;2022-10-10T09:32:03;19.90;79.40
7494;DHT22;3788;49.902;8.590;2022-10-10T09:34:33;19.60;79.10
7494;DHT22;3788;49.902;8.590;2022-10-10T09:37:03;19.20;79.60
7494;DHT22;3788;49.902;8.590;2022-10-10T09:39:39;18.70;80.40
7494;DHT22;3788;49.902;8.590;2022-10-10T09:42:10;18.20;81.60
7494;DHT22;3788;49.902;8.590;2022-10-10T09:44:38;17.90;82.50
7494;DHT22;3788;49.902;8.590;2022-10-10T09:47:06;17.70;83.40
7494;DHT22;3788;49.902;8.590;2022-10-10T09:49:34;17.50;84.30
7494;DHT22;3788;49.902;8.590;2022-10-10T09:52:24;17.30;84.90
7494;DHT22;3788;49.902;8.590;2022-10-10T09:54:55;17.10;85.60
7494;DHT22;3788;49.902;8.590;2022-10-10T09:57:26;16.80;86.30
7494;DHT22;3788;49.902;8.590;2022-10-10T09:59:54;16.60;87.40
7494;DHT22;3788;49.902;8.590;2022-10-10T10:02:22;16.60;88.30
7494;DHT22;3788;49.902;8.590;2022-10-10T10:04:50;16.70;88.90
7494;DHT22;3788;49.902;8.590;2022-10-10T10:07:23;16.80;89.30
7494;DHT22;3788;49.902;8.590;2022-10-10T10:09:52;16.70;89.90
7494;DHT22;3788;49.902;8.590;2022-10-10T10:12:23;16.90;90.20
7494;DHT22;3788;49.902;8.590;2022-10-10T10:14:52;17.10;90.20
7494;DHT22;3788;49.902;8.590;2022-10-10T10:17:23;17.40;90.20
7494;DHT22;3788;49.902;8.590;2022-10-10T10:19:49;17.60;90.20
7494;DHT22;3788;49.902;8.590;2022-10-10T10:22:29;17.80;90.20
7494;DHT22;3788;49.902;8.590;2022-10-10T10:24:57;17.90;90.20
7494;DHT22;3788;49.902;8.590;2022-10-10T10:27:25;18.10;90.20
7494;DHT22;3788;49.902;8.590;2022-10-10T10:29:54;18.20;90.20
7494;DHT22;3788;49.902;8.590;2022-10-10T10:32:34;18.20;90.20
7494;DHT22;3788;49.902;8.590;2022-10-10T10:35:19;18.20;90.10
7494;DHT22;3788;49.902;8.590;2022-10-10T10:38:13;18.20;90.30
7494;DHT22;3788;49.902;8.590;2022-10-10T10:40:49;18.20;90.40
7494;DHT22;3788;49.902;8.590;2022-10-10T10:44:04;18.40;90.80
7494;DHT22;3788;49.902;8.590;2022-10-10T10:46:48;18.40;90.70
7494;DHT22;3788;49.902;8.590;2022-10-10T10:49:21;18.50;90.70
7494;DHT22;3788;49.902;8.590;2022-10-10T10:52:05;18.60;90.90
7494;DHT22;3788;49.902;8.590;2022-10-10T10:54:48;18.80;91.00
7494;DHT22;3788;49.902;8.590;2022-10-10T10:57:26;18.80;91.00
7494;DHT22;3788;49.902;8.590;2022-10-10T11:00:03;18.80;91.00
7494;DHT22;3788;49.902;8.590;2022-10-10T11:02:37;18.80;90.90
7494;DHT22;3788;49.902;8.590;2022-10-10T11:05:27;18.80;91.00
7494;DHT22;3788;49.902;8.590;2022-10-10T11:08:10;18.90;91.30
7494;DHT22;3788;49.902;8.590;2022-10-10T11:10:48;19.00;91.30
7494;DHT22;3788;49.902;8.590;2022-10-10T11:13:24;19.00;91.20
7494;DHT22;3788;49.902;8.590;2022-10-10T11:16:00;19.10;91.20
7494;DHT22;3788;49.902;8.590;2022-10-10T11:18:31;19.10;91.10
7494;DHT22;3788;49.902;8.590;2022-10-10T11:21:04;19.10;91.00
7494;DHT22;3788;49.902;8.590;2022-10-10T11:23:34;19.00;91.20
7494;DHT22;3788;49.902;8.590;2022-10-10T11:26:09;19.00;91.40
7494;DHT22;3788;49.902;8.590;2022-10-10T11:28:41;19.10;91.50
7494;DHT22;3788;49.902;8.590;2022-10-10T11:31:13;19.20;91.50
7494;DHT22;3788;49.902;8.590;2022-10-10T11:33:46;19.20;91.40
7494;DHT22;3788;49.902;8.590;2022-10-10T11:36:17;19.30;91.40
7494;DHT22;3788;49.902;8.590;2022-10-10T11:38:48;19.20;91.40
7494;DHT22;3788;49.902;8.590;2022-10-10T11:41:22;19.30;91.60
7494;DHT22;3788;49.902;8.590;2022-10-10T11:43:53;19.30;91.60
7494;DHT22;3788;49.902;8.590;2022-10-10T11:46:28;19.40;91.60
7494;DHT22;3788;49.902;8.590;2022-10-10T11:49:01;19.40;91.60
7494;DHT22;3788;49.902;8.590;2022-10-10T11:51:38;19.40;91.60
7494;DHT22;3788;49.902;8.590;2022-10-10T11:54:16;19.40;91.50
7494;DHT22;3788;49.902;8.590;2022-10-10T11:56:49;19.40;91.60
7494;DHT22;3788;49.902;8.590;2022-10-10T11:59:23;19.30;91.70
7494;DHT22;3788;49.902;8.590;2022-10-10T12:01:52;19.40;91.80
7494;DHT22;3788;49.902;8.590;2022-10-10T12:04:21;19.40;91.80
7494;DHT22;3788;49.902;8.590;2022-10-10T12:06:53;19.40;91.80
7494;DHT22;3788;49.902;8.590;2022-10-10T12:09:25;19.50;92.00
7494;DHT22;3788;49.902;8.590;2022-10-10T12:11:56;19.50;91.90
7494;DHT22;3788;49.902;8.590;2022-10-10T12:14:27;19.60;92.10
7494;DHT22;3788;49.902;8.590;2022-10-10T12:16:56;19.60;91.90
7494;DHT22;3788;49.902;8.590;2022-10-10T12:19:24;19.70;92.00
7494;DHT22;3788;49.902;8.590;2022-10-10T12:21:55;19.70;91.90
7494;DHT22;3788;49.902;8.590;2022-10-10T12:24:23;19.70;91.80
7494;DHT22;3788;49.902;8.590;2022-10-10T12:27:29;19.70;91.90
7494;DHT22;3788;49.902;8.590;2022-10-10T12:30:17;19.80;91.90
7494;DHT22;3788;49.902;8.590;2022-10-10T12:32:44;19.80;91.70
7494;DHT22;3788;49.902;8.590;2022-10-10T12:35:33;19.90;91.80
7494;DHT22;3788;49.902;8.590;2022-10-10T12:38:19;20.00;91.80
7494;DHT22;3788;49.902;8.590;2022-10-10T12:41:13;20.00;91.80
7494;DHT22;3788;49.902;8.590;2022-10-10T12:46:45;20.00;91.70
7494;DHT22;3788;49.902;8.590;2022-10-10T12:49:17;20.00;91.80
7494;DHT22;3788;49.902;8.590;2022-10-10T12:51:57;19.90;91.70
7494;DHT22;3788;49.902;8.590;2022-10-10T12:54:28;19.90;91.80
7494;DHT22;3788;49.902;8.590;2022-10-10T12:57:04;19.90;91.70
7494;DHT22;3788;49.902;8.590;2022-10-10T12:59:34;20.00;91.70
7494;DHT22;3788;49.902;8.590;2022-10-10T13:02:06;20.00;91.70
7494;DHT22;3788;49.902;8.590;2022-10-10T13:04:41;20.00;91.70
7494;DHT22;3788;49.902;8.590;2022-10-10T13:07:14;20.00;91.70
7494;DHT22;3788;49.902;8.590;2022-10-10T13:09:43;20.10;91.60
7494;DHT22;3788;49.902;8.590;2022-10-10T13:12:22;20.10;91.60
7494;DHT22;3788;49.902;8.590;2022-10-10T13:14:49;20.10;91.60
7494;DHT22;3788;49.902;8.590;2022-10-10T13:17:28;20.20;91.60
7494;DHT22;3788;49.902;8.590;2022-10-10T13:19:57;20.20;91.50
7494;DHT22;3788;49.902;8.590;2022-10-10T13:22:25;20.30;91.30
7494;DHT22;3788;49.902;8.590;2022-10-10T13:24:53;20.30;91.30
7494;DHT22;3788;49.902;8.590;2022-10-10T13:27:21;20.40;91.30
7494;DHT22;3788;49.902;8.590;2022-10-10T13:29:49;20.50;91.30
7494;DHT22;3788;49.902;8.590;2022-10-10T13:32:18;20.60;91.10
7494;DHT22;3788;49.902;8.590;2022-10-10T13:34:50;20.70;91.00
7494;DHT22;3788;49.902;8.590;2022-10-10T13:37:18;20.70;91.00
7494;DHT22;3788;49.902;8.590;2022-10-10T13:39:47;20.70;90.90
7494;DHT22;3788;49.902;8.590;2022-10-10T13:42:33;20.70;90.90
7494;DHT22;3788;49.902;8.590;2022-10-10T13:45:01;20.60;90.90
7494;DHT22;3788;49.902;8.590;2022-10-10T13:47:52;20.60;90.90
7494;DHT22;3788;49.902;8.590;2022-10-10T13:50:26;20.50;90.90
7494;DHT22;3788;49.902;8.590;2022-10-10T13:53:21;20.50;91.00
7494;DHT22;3788;49.902;8.590;2022-10-10T13:55:50;20.60;90.90
7494;DHT22;3788;49.902;8.590;2022-10-10T13:58:17;20.60;90.90
7494;DHT22;3788;49.902;8.590;2022-10-10T14:00:53;20.60;90.80
7494;DHT22;3788;49.902;8.590;2022-10-10T14:03:21;20.70;90.80
7494;DHT22;3788;49.902;8.590;2022-10-10T14:05:49;20.70;90.70
7494;DHT22;3788;49.902;8.590;2022-10-10T14:08:18;20.80;90.50
7494;DHT22;3788;49.902;8.590;2022-10-10T14:10:56;20.80;90.60
7494;DHT22;3788;49.902;8.590;2022-10-10T14:13:24;20.80;90.30
7494;DHT22;3788;49.902;8.590;2022-10-10T14:15:51;20.90;90.40
7494;DHT22;3788;49.902;8.590;2022-10-10T14:18:21;20.80;90.30
7494;DHT22;3788;49.902;8.590;2022-10-10T14:20:50;20.80;90.40
7494;DHT22;3788;49.902;8.590;2022-10-10T14:23:18;20.70;90.40
7494;DHT22;3788;49.902;8.590;2022-10-10T14:25:47;20.80;90.50
7494;DHT22;3788;49.902;8.590;2022-10-10T14:28:16;20.70;90.50
7494;DHT22;3788;49.902;8.590;2022-10-10T14:30:56;20.60;90.50
7494;DHT22;3788;49.902;8.590;2022-10-10T14:33:25;20.60;90.50
7494;DHT22;3788;49.902;8.590;2022-10-10T14:35:54;20.60;90.80
7494;DHT22;3788;49.902;8.590;2022-10-10T14:38:21;20.50;90.40
7494;DHT22;3788;49.902;8.590;2022-10-10T14:40:49;20.50;90.40
7494;DHT22;3788;49.902;8.590;2022-10-10T14:43:17;20.50;90.40
7494;DHT22;3788;49.902;8.590;2022-10-10T14:45:45;20.50;90.60
7494;DHT22;3788;49.902;8.590;2022-10-10T14:48:12;20.50;90.60
7494;DHT22;3788;49.902;8.590;2022-10-10T14:50:41;20.40;90.70
7494;DHT22;3788;49.902;8.590;2022-10-10T14:53:10;20.40;90.80
7494;DHT22;3788;49.902;8.590;2022-10-10T14:55:37;20.40;90.90
7494;DHT22;3788;49.902;8.590;2022-10-10T14:58:08;20.40;91.00
7494;DHT22;3788;49.902;8.590;2022-10-10T15:00:35;20.50;91.10
7494;DHT22;3788;49.902;8.590;2022-10-10T15:03:02;20.50;91.10
7494;DHT22;3788;49.902;8.590;2022-10-10T15:05:28;20.60;91.10
7494;DHT22;3788;49.902;8.590;2022-10-10T15:07:55;20.60;91.00
7494;DHT22;3788;49.902;8.590;2022-10-10T15:10:23;20.60;90.90
7494;DHT22;3788;49.902;8.590;2022-10-10T15:12:50;20.60;90.90
7494;DHT22;3788;49.902;8.590;2022-10-10T15:15:16;20.60;90.90
7494;DHT22;3788;49.902;8.590;2022-10-10T15:17:43;20.50;90.90
7494;DHT22;3788;49.902;8.590;2022-10-10T15:20:11;20.40;90.90
7494;DHT22;3788;49.902;8.590;2022-10-10T15:22:38;20.40;91.10
7494;DHT22;3788;49.902;8.590;2022-10-10T15:25:06;20.40;91.20
7494;DHT22;3788;49.902;8.590;2022-10-10T15:27:35;20.30;91.20
7494;DHT22;3788;49.902;8.590;2022-10-10T15:30:03;20.30;91.20
7494;DHT22;3788;49.902;8.590;2022-10-10T15:32:30;20.30;91.30
7494;DHT22;3788;49.902;8.590;2022-10-10T15:34:56;20.30;91.40
7494;DHT22;3788;49.902;8.590;2022-10-10T15:37:25;20.20;91.40
7494;DHT22;3788;49.902;8.590;2022-10-10T15:39:52;20.20;91.50
7494;DHT22;3788;49.902;8.590;2022-10-10T15:42:19;20.20;91.60
7494;DHT22;3788;49.902;8.590;2022-10-10T15:44:48;20.10;91.70
7494;DHT22;3788;49.902;8.590;2022-10-10T15:47:15;20.10;91.80
7494;DHT22;3788;49.902;8.590;2022-10-10T15:49:46;20.10;91.80
7494;DHT22;3788;49.902;8.590;2022-10-10T15:52:13;20.10;91.90
7494;DHT22;3788;49.902;8.590;2022-10-10T15:54:40;20.10;91.90
7494;DHT22;3788;49.902;8.590;2022-10-10T15:57:07;20.00;91.90
7494;DHT22;3788;49.902;8.590;2022-10-10T15:59:34;20.00;92.00
7494;DHT22;3788;49.902;8.590;2022-10-10T16:02:02;20.00;92.10
7494;DHT22;3788;49.902;8.590;2022-10-10T16:04:28;20.00;92.20
7494;DHT22;3788;49.902;8.590;2022-10-10T16:06:55;19.90;92.20
7494;DHT22;3788;49.902;8.590;2022-10-10T16:09:22;19.90;92.20
7494;DHT22;3788;49.902;8.590;2022-10-10T16:11:49;19.90;92.30
7494;DHT22;3788;49.902;8.590;2022-10-10T16:14:15;19.90;92.30
7494;DHT22;3788;49.902;8.590;2022-10-10T16:16:42;19.90;92.40
7494;DHT22;3788;49.902;8.590;2022-10-10T16:19:11;19.80;92.50
7494;DHT22;3788;49.902;8.590;2022-10-10T16:21:37;19.70;92.70
7494;DHT22;3788;49.902;8.590;2022-10-10T16:24:05;19.60;92.90
7494;DHT22;3788;49.902;8.590;2022-10-10T16:26:32;19.50;93.20
7494;DHT22;3788;49.902;8.590;2022-10-10T16:29:00;19.30;93.50
7494;DHT22;3788;49.902;8.590;2022-10-10T16:31:28;19.10;93.70
7494;DHT22;3788;49.902;8.590;2022-10-10T16:33:55;19.00;94.00